Time;durP1;ratioP1;P1;durP2;ratioP2;P2;SDS_P1;SDS_P2;PMS_P1;PMS_P2;Temp;Humidity;BMP_temperature;BMP_pressure;BME280_temperature;BME280_humidity;BME280_pressure;Samples;Min_cycle;Max_cycle;Signal;HPM_P1;HPM_P2
2021/08/22 00:00:37;;;;;;;2.50;2.30;;;16.50;99.90;;;;;;4988456;28;20404;-79
2021/08/22 00:03:02;;;;;;;2.03;1.92;;;16.50;99.90;;;;;;4987412;28;20737;-80
2021/08/22 00:05:28;;;;;;;2.83;2.63;;;16.50;99.90;;;;;;4987291;28;20404;-80
2021/08/22 00:07:54;;;;;;;2.00;1.90;;;16.50;99.90;;;;;;4954111;28;21005;-79
2021/08/22 00:10:20;;;;;;;2.30;2.20;;;16.40;99.90;;;;;;5004876;28;20400;-80
2021/08/22 00:12:45;;;;;;;2.47;2.28;;;16.40;99.90;;;;;;4986682;28;20409;-80
2021/08/22 00:15:11;;;;;;;2.17;1.97;;;16.40;99.90;;;;;;4987654;28;20400;-80
2021/08/22 00:17:37;;;;;;;2.33;2.13;;;16.30;99.90;;;;;;4971125;28;20401;-80
2021/08/22 00:20:03;;;;;;;2.37;2.23;;;16.30;99.90;;;;;;4957012;28;20408;-80
2021/08/22 00:22:29;;;;;;;2.17;2.00;;;16.30;99.90;;;;;;4986300;28;20459;-80
2021/08/22 00:24:54;;;;;;;2.45;2.25;;;16.30;99.90;;;;;;4956693;28;20400;-80
2021/08/22 00:27:20;;;;;;;2.30;2.07;;;16.20;99.90;;;;;;4970332;28;20416;-80
2021/08/22 00:29:46;;;;;;;1.98;1.88;;;16.20;99.90;;;;;;4962027;28;20410;-80
2021/08/22 00:32:11;;;;;;;2.40;2.20;;;16.20;99.90;;;;;;4949185;28;20471;-80
2021/08/22 00:34:37;;;;;;;2.47;2.28;;;16.10;99.90;;;;;;4987942;28;20415;-80
2021/08/22 00:37:03;;;;;;;2.70;2.23;;;16.10;99.90;;;;;;4985790;28;20393;-80
2021/08/22 00:39:29;;;;;;;2.30;2.10;;;16.10;99.90;;;;;;4988487;28;20400;-79
2021/08/22 00:41:54;;;;;;;2.30;2.10;;;16.10;99.90;;;;;;4979487;28;20401;-79
2021/08/22 00:44:21;;;;;;;2.25;2.05;;;16.00;99.90;;;;;;4955758;28;20432;-79
2021/08/22 00:46:48;;;;;;;2.17;2.08;;;16.10;99.90;;;;;;4965417;28;20419;-79
2021/08/22 00:49:13;;;;;;;2.20;2.10;;;16.00;99.90;;;;;;4989116;28;20405;-79
2021/08/22 00:51:39;;;;;;;2.50;2.30;;;16.00;99.90;;;;;;4963366;28;20509;-80
2021/08/22 00:54:05;;;;;;;2.63;2.22;;;16.00;99.90;;;;;;4948791;28;20899;-80
2021/08/22 00:56:31;;;;;;;2.83;2.30;;;15.90;99.90;;;;;;4967490;28;20389;-80
2021/08/22 00:58:57;;;;;;;2.22;2.10;;;15.90;99.90;;;;;;4986750;28;20393;-79
2021/08/22 01:01:23;;;;;;;2.47;2.13;;;15.90;99.90;;;;;;4969641;28;21139;-79
2021/08/22 01:03:53;;;;;;;2.40;2.20;;;15.90;99.90;;;;;;4971525;28;20400;-79
2021/08/22 01:06:43;;;;;;;3.15;2.35;;;15.80;99.90;;;;;;4970570;28;20428;-80
2021/08/22 01:09:20;;;;;;;2.50;2.30;;;15.80;99.90;;;;;;4973068;28;20458;-79
2021/08/22 01:11:46;;;;;;;2.63;2.42;;;15.80;99.90;;;;;;4970441;28;20502;-80
2021/08/22 01:14:13;;;;;;;2.27;2.10;;;15.80;99.90;;;;;;4969469;28;20432;-79
2021/08/22 01:16:43;;;;;;;1.95;1.85;;;15.70;99.90;;;;;;4958394;28;20392;-80
2021/08/22 01:19:20;;;;;;;2.42;2.22;;;15.70;99.90;;;;;;4973522;28;20402;-79
2021/08/22 01:21:46;;;;;;;2.05;1.95;;;15.70;99.90;;;;;;4988297;28;20407;-80
2021/08/22 01:24:12;;;;;;;2.60;2.40;;;15.70;99.90;;;;;;4988132;28;20467;-79
2021/08/22 01:26:38;;;;;;;3.60;2.20;;;15.60;99.90;;;;;;4970540;28;20392;-79
2021/08/22 01:29:04;;;;;;;2.85;2.65;;;15.60;99.90;;;;;;4970405;28;20405;-80
2021/08/22 01:31:35;;;;;;;2.53;2.33;;;15.60;99.90;;;;;;4976420;28;21070;-80
2021/08/22 01:34:01;;;;;;;2.50;2.30;;;15.60;99.90;;;;;;4978687;28;20392;-79
2021/08/22 01:36:26;;;;;;;2.67;2.47;;;15.60;99.90;;;;;;4948489;28;20449;-80
2021/08/22 01:38:54;;;;;;;2.23;2.13;;;15.50;99.90;;;;;;4964571;28;20457;-80
2021/08/22 01:41:21;;;;;;;2.60;2.40;;;15.50;99.90;;;;;;4958789;28;20473;-80
2021/08/22 01:43:47;;;;;;;2.70;2.50;;;15.50;99.90;;;;;;4970133;28;20404;-80
2021/08/22 01:46:12;;;;;;;2.63;2.43;;;15.40;99.90;;;;;;4953543;28;20442;-80
2021/08/22 01:48:39;;;;;;;2.60;2.40;;;15.40;99.90;;;;;;4970069;28;20391;-80
2021/08/22 01:51:05;;;;;;;2.63;2.42;;;15.40;99.90;;;;;;4969456;28;20391;-80
2021/08/22 01:53:31;;;;;;;2.53;2.33;;;15.30;99.90;;;;;;4969971;28;20408;-80
2021/08/22 01:55:56;;;;;;;2.50;2.30;;;15.30;99.90;;;;;;4970150;28;23178;-79
2021/08/22 01:58:24;;;;;;;2.63;2.42;;;15.30;99.90;;;;;;4968987;28;20809;-80
2021/08/22 02:00:49;;;;;;;2.15;2.05;;;15.30;99.90;;;;;;4985841;28;20431;-80
2021/08/22 02:03:16;;;;;;;2.63;2.43;;;15.30;99.90;;;;;;4953589;28;20472;-80
2021/08/22 02:05:41;;;;;;;3.00;2.80;;;15.30;99.90;;;;;;4968974;28;20925;-80
2021/08/22 02:08:14;;;;;;;2.58;2.38;;;15.20;99.90;;;;;;4985745;28;20423;-80
2021/08/22 02:10:44;;;;;;;2.90;2.70;;;15.30;99.90;;;;;;4985821;28;20896;-79
2021/08/22 02:13:09;;;;;;;2.60;2.40;;;15.20;99.90;;;;;;4968193;28;20405;-79
2021/08/22 02:15:42;;;;;;;2.60;2.30;;;15.30;99.90;;;;;;5001368;28;20403;-80
2021/08/22 02:18:12;;;;;;;2.63;2.42;;;15.30;99.90;;;;;;4954771;28;20405;-80
2021/08/22 02:20:39;;;;;;;2.58;2.38;;;15.30;99.90;;;;;;4970356;28;20389;-80
2021/08/22 02:23:04;;;;;;;2.83;2.63;;;15.30;99.90;;;;;;4951333;28;20408;-80
2021/08/22 02:25:30;;;;;;;3.03;2.57;;;15.30;99.90;;;;;;4986816;28;20404;-79
2021/08/22 02:27:56;;;;;;;2.60;2.40;;;15.30;99.90;;;;;;4968370;28;20406;-80
2021/08/22 02:30:22;;;;;;;2.60;2.40;;;15.30;99.90;;;;;;4963954;28;20850;-79
2021/08/22 02:32:48;;;;;;;3.43;2.60;;;15.30;99.90;;;;;;4985163;28;20413;-80
2021/08/22 02:35:13;;;;;;;2.95;2.67;;;15.30;99.90;;;;;;4985571;28;20405;-80
2021/08/22 02:37:39;;;;;;;2.77;2.57;;;15.30;99.90;;;;;;4968635;28;21113;-80
2021/08/22 02:40:05;;;;;;;2.83;2.63;;;15.30;99.90;;;;;;4954084;28;20393;-80
2021/08/22 02:42:31;;;;;;;2.58;2.38;;;15.30;99.90;;;;;;4964255;28;20939;-80
2021/08/22 02:44:57;;;;;;;2.60;2.40;;;15.30;99.90;;;;;;4988693;28;20405;-80
2021/08/22 02:47:22;;;;;;;2.85;2.55;;;15.30;99.90;;;;;;4983263;28;21087;-80
2021/08/22 02:49:48;;;;;;;3.47;2.43;;;15.30;99.90;;;;;;4969692;28;20920;-80
2021/08/22 02:52:13;;;;;;;2.80;2.60;;;15.30;99.90;;;;;;4969702;28;20781;-80
2021/08/22 02:54:39;;;;;;;2.60;2.40;;;15.30;99.90;;;;;;4989101;28;20841;-80
2021/08/22 02:57:05;;;;;;;2.97;2.70;;;15.20;99.90;;;;;;4972373;28;20400;-79
2021/08/22 02:59:31;;;;;;;3.10;2.60;;;15.30;99.90;;;;;;4966289;28;20406;-80
2021/08/22 03:01:57;;;;;;;2.85;2.65;;;15.30;99.90;;;;;;4970993;28;20439;-80
2021/08/22 03:04:22;;;;;;;3.03;2.73;;;15.30;99.90;;;;;;4973294;28;20396;-80
2021/08/22 03:06:48;;;;;;;2.70;2.50;;;15.30;99.90;;;;;;4972295;28;20396;-80
2021/08/22 03:09:14;;;;;;;3.42;2.60;;;15.30;99.90;;;;;;4973042;28;20392;-80
2021/08/22 03:11:39;;;;;;;2.60;2.40;;;15.30;99.90;;;;;;4957088;28;20417;-81
2021/08/22 03:14:05;;;;;;;2.90;2.70;;;15.30;99.90;;;;;;4990720;28;20405;-80
2021/08/22 03:16:31;;;;;;;3.10;2.80;;;15.30;99.90;;;;;;4987748;28;20909;-80
2021/08/22 03:18:57;;;;;;;2.75;2.50;;;15.30;99.90;;;;;;4973077;28;20396;-80
2021/08/22 03:21:24;;;;;;;2.53;2.33;;;15.30;99.90;;;;;;4957285;28;20420;-80
2021/08/22 03:23:49;;;;;;;2.67;2.47;;;15.30;99.90;;;;;;4971518;28;20458;-80
2021/08/22 03:26:15;;;;;;;3.28;2.53;;;15.30;99.90;;;;;;4989710;28;21029;-80
2021/08/22 03:28:41;;;;;;;5.23;3.00;;;15.30;99.90;;;;;;4970077;28;20524;-80
2021/08/22 03:31:07;;;;;;;3.00;2.80;;;15.30;99.90;;;;;;4956587;28;20396;-80
2021/08/22 03:33:32;;;;;;;2.83;2.60;;;15.30;99.90;;;;;;4988513;28;20417;-80
2021/08/22 03:35:58;;;;;;;3.10;2.80;;;15.30;99.90;;;;;;4972883;28;20400;-80
2021/08/22 03:38:23;;;;;;;2.60;2.40;;;15.30;99.90;;;;;;4957575;28;20397;-81
2021/08/22 03:40:49;;;;;;;2.75;2.55;;;15.30;99.90;;;;;;4979112;28;20409;-80
2021/08/22 03:43:15;;;;;;;3.10;2.60;;;15.30;99.90;;;;;;4961949;28;20409;-79
2021/08/22 03:45:40;;;;;;;3.63;2.70;;;15.30;99.90;;;;;;4990194;28;20434;-80
2021/08/22 03:48:06;;;;;;;3.08;2.88;;;15.30;99.90;;;;;;5004742;28;20408;-80
2021/08/22 03:50:32;;;;;;;3.00;2.70;;;15.30;99.90;;;;;;4989647;28;20389;-80
2021/08/22 03:52:57;;;;;;;2.72;2.53;;;15.30;99.90;;;;;;4955837;28;20451;-80
2021/08/22 03:55:23;;;;;;;4.37;2.80;;;15.30;99.90;;;;;;4972946;28;20401;-80
2021/08/22 03:57:49;;;;;;;2.95;2.70;;;15.30;99.90;;;;;;4955575;28;20400;-80
2021/08/22 04:00:15;;;;;;;2.90;2.70;;;15.30;99.90;;;;;;4965693;28;20408;-80
2021/08/22 04:02:41;;;;;;;2.75;2.55;;;15.30;99.90;;;;;;4969919;28;20401;-80
2021/08/22 04:05:25;;;;;;;3.47;2.90;;;15.30;99.90;;;;;;4962991;28;20424;-80
2021/08/22 04:07:53;;;;;;;2.80;2.47;;;15.30;99.90;;;;;;4970837;28;20401;-80
2021/08/22 04:10:19;;;;;;;3.42;3.13;;;15.30;99.90;;;;;;4957624;28;20429;-79
2021/08/22 04:12:44;;;;;;;2.92;2.72;;;15.20;99.90;;;;;;4954159;28;20451;-79
2021/08/22 04:15:10;;;;;;;2.73;2.53;;;15.20;99.90;;;;;;4972215;28;20960;-80
2021/08/22 04:17:36;;;;;;;3.53;3.08;;;15.20;99.90;;;;;;4952833;28;20440;-80
2021/08/22 04:20:02;;;;;;;2.77;2.57;;;15.20;99.90;;;;;;4981133;28;21288;-80
2021/08/22 04:22:28;;;;;;;3.00;2.80;;;15.20;99.90;;;;;;4955622;28;20796;-80
2021/08/22 04:24:53;;;;;;;2.95;2.65;;;15.20;99.90;;;;;;4956623;28;20446;-81
2021/08/22 04:27:19;;;;;;;3.00;2.80;;;15.20;99.90;;;;;;4955523;28;20393;-80
2021/08/22 04:29:45;;;;;;;3.10;2.83;;;15.20;99.90;;;;;;4971805;28;20368;-80
2021/08/22 04:32:11;;;;;;;3.40;3.10;;;15.20;99.90;;;;;;4986193;28;20873;-80
2021/08/22 04:34:36;;;;;;;3.25;2.95;;;15.20;99.90;;;;;;4956710;28;20400;-81
2021/08/22 04:37:04;;;;;;;3.17;2.80;;;15.20;99.90;;;;;;4971290;28;20397;-81
2021/08/22 04:39:29;;;;;;;2.90;2.70;;;15.20;99.90;;;;;;4956186;28;20405;-80
2021/08/22 04:41:55;;;;;;;3.38;2.75;;;15.20;99.90;;;;;;4955438;28;20408;-80
2021/08/22 04:44:20;;;;;;;2.92;2.72;;;15.20;99.90;;;;;;4955575;28;20423;-81
2021/08/22 04:46:46;;;;;;;2.60;2.40;;;15.20;99.90;;;;;;4970784;28;20885;-80
2021/08/22 04:49:12;;;;;;;2.30;2.20;;;15.20;99.90;;;;;;4972182;28;20760;-81
2021/08/22 04:51:38;;;;;;;3.10;2.80;;;15.30;99.90;;;;;;4954713;28;20393;-81
2021/08/22 04:54:03;;;;;;;2.83;2.63;;;15.30;99.90;;;;;;4965756;28;20396;-81
2021/08/22 04:56:29;;;;;;;3.20;3.00;;;15.30;99.90;;;;;;4987637;28;20401;-81
2021/08/22 04:58:55;;;;;;;3.90;3.17;;;15.30;99.90;;;;;;4971407;28;20470;-80
2021/08/22 05:01:21;;;;;;;3.67;3.28;;;15.30;99.90;;;;;;4966363;28;20422;-80
2021/08/22 05:03:46;;;;;;;3.60;3.13;;;15.30;99.90;;;;;;4955531;28;20404;-81
2021/08/22 05:06:12;;;;;;;3.00;2.80;;;15.30;99.90;;;;;;4979181;28;20398;-81
2021/08/22 05:08:38;;;;;;;3.35;3.05;;;15.30;99.90;;;;;;5004364;28;20399;-80
2021/08/22 05:11:04;;;;;;;3.13;2.90;;;15.30;99.90;;;;;;4984925;28;20420;-81
2021/08/22 05:13:30;;;;;;;3.53;3.23;;;15.40;99.90;;;;;;4960649;28;20411;-81
2021/08/22 05:15:55;;;;;;;3.30;3.00;;;15.30;99.90;;;;;;4987209;28;20409;-81
2021/08/22 05:18:21;;;;;;;3.70;3.40;;;15.30;99.90;;;;;;5002295;28;20405;-81
2021/08/22 05:20:47;;;;;;;3.72;3.20;;;15.40;99.90;;;;;;4956129;28;20475;-81
2021/08/22 05:23:13;;;;;;;3.65;3.35;;;15.50;99.90;;;;;;4983274;28;20412;-80
2021/08/22 05:25:38;;;;;;;3.43;3.13;;;15.40;99.90;;;;;;4971341;28;20409;-80
2021/08/22 05:28:04;;;;;;;5.78;3.25;;;15.40;99.90;;;;;;4970638;28;20409;-81
2021/08/22 05:30:30;;;;;;;3.40;3.10;;;15.40;99.90;;;;;;4970458;28;20422;-79
2021/08/22 05:32:55;;;;;;;3.85;3.50;;;15.50;99.90;;;;;;4963220;28;21020;-81
2021/08/22 05:35:21;;;;;;;3.40;3.10;;;15.50;99.90;;;;;;4970635;28;20415;-81
2021/08/22 05:37:47;;;;;;;6.03;2.97;;;15.50;99.90;;;;;;4953496;28;20404;-80
2021/08/22 05:40:12;;;;;;;3.92;3.63;;;15.60;99.90;;;;;;4987961;28;20401;-80
2021/08/22 05:42:38;;;;;;;3.80;3.37;;;15.60;99.90;;;;;;4969486;28;20401;-80
2021/08/22 05:45:04;;;;;;;2.97;2.67;;;15.70;99.90;;;;;;5003542;28;20452;-80
2021/08/22 05:47:30;;;;;;;3.65;3.13;;;15.70;99.90;;;;;;4984319;28;20861;-80
2021/08/22 05:49:55;;;;;;;3.43;3.10;;;15.80;99.90;;;;;;4987469;28;20396;-79
2021/08/22 05:52:21;;;;;;;3.93;3.60;;;15.90;99.90;;;;;;4969955;28;20886;-80
2021/08/22 05:54:47;;;;;;;5.65;3.25;;;15.90;99.90;;;;;;4970609;28;20806;-80
2021/08/22 05:57:12;;;;;;;3.47;3.10;;;16.00;99.90;;;;;;4971332;28;20751;-81
2021/08/22 05:59:39;;;;;;;3.65;3.20;;;16.10;99.90;;;;;;4990526;28;20403;-81
2021/08/22 06:02:05;;;;;;;3.42;3.13;;;16.20;99.90;;;;;;4971078;28;20405;-80
2021/08/22 06:04:32;;;;;;;3.57;3.27;;;16.30;99.90;;;;;;4960461;28;20405;-80
2021/08/22 06:06:57;;;;;;;3.85;3.55;;;16.40;99.90;;;;;;4976649;28;20452;-80
2021/08/22 06:09:23;;;;;;;3.65;3.25;;;16.50;99.90;;;;;;4987927;28;20397;-80
2021/08/22 06:11:49;;;;;;;3.57;3.30;;;16.70;99.90;;;;;;4987605;28;20425;-80
2021/08/22 06:14:14;;;;;;;4.22;3.20;;;16.70;99.90;;;;;;4971304;28;20412;-80
2021/08/22 06:16:40;;;;;;;3.60;3.30;;;16.80;99.90;;;;;;4953106;28;20486;-80
2021/08/22 06:19:06;;;;;;;4.03;3.30;;;17.00;99.90;;;;;;4988582;28;20418;-80
2021/08/22 06:21:31;;;;;;;3.87;3.50;;;17.10;99.90;;;;;;4969761;28;20399;-81
2021/08/22 06:23:58;;;;;;;4.10;3.70;;;17.20;99.90;;;;;;4954611;28;20389;-81
2021/08/22 06:26:25;;;;;;;3.65;3.35;;;17.30;99.90;;;;;;4987179;28;20403;-81
2021/08/22 06:28:51;;;;;;;3.67;3.38;;;17.40;99.90;;;;;;4970790;28;20455;-80
2021/08/22 06:31:17;;;;;;;5.18;3.60;;;17.50;99.90;;;;;;4987245;28;20915;-80
2021/08/22 06:33:43;;;;;;;3.57;3.27;;;17.70;99.90;;;;;;4970227;28;20405;-81
2021/08/22 06:36:08;;;;;;;3.65;3.35;;;17.90;99.90;;;;;;4953590;28;20400;-81
2021/08/22 06:38:34;;;;;;;3.50;3.20;;;18.10;99.90;;;;;;4955090;28;20389;-80
2021/08/22 06:41:00;;;;;;;3.13;2.93;;;18.30;99.90;;;;;;4953199;28;20399;-80
2021/08/22 06:43:25;;;;;;;3.75;3.33;;;18.50;99.90;;;;;;4960676;28;20412;-80
2021/08/22 06:45:51;;;;;;;3.70;2.97;;;18.80;99.90;;;;;;4970529;28;20984;-81
2021/08/22 06:48:16;;;;;;;3.40;3.07;;;19.00;99.90;;;;;;4986074;28;20403;-81
2021/08/22 06:50:43;;;;;;;3.00;2.80;;;19.20;99.90;;;;;;4955786;28;20404;-80
2021/08/22 06:53:08;;;;;;;3.63;3.05;;;19.30;99.90;;;;;;4986597;28;20413;-80
2021/08/22 06:55:34;;;;;;;3.90;3.60;;;19.40;99.90;;;;;;4986809;28;20483;-80
2021/08/22 06:58:00;;;;;;;3.47;3.17;;;19.60;99.90;;;;;;4986273;28;20416;-81
2021/08/22 07:00:25;;;;;;;3.00;2.80;;;19.60;99.90;;;;;;4954065;28;20425;-80
2021/08/22 07:02:51;;;;;;;2.77;2.57;;;19.70;99.90;;;;;;4952507;28;20784;-80
2021/08/22 07:05:17;;;;;;;2.90;2.70;;;19.80;99.90;;;;;;4954890;28;20424;-81
2021/08/22 07:07:42;;;;;;;2.90;2.70;;;20.00;99.90;;;;;;4953942;28;20411;-80
2021/08/22 07:10:09;;;;;;;2.88;2.65;;;20.10;99.90;;;;;;4972159;28;20397;-80
2021/08/22 07:12:34;;;;;;;2.97;2.67;;;20.30;99.90;;;;;;4971332;28;20404;-81
2021/08/22 07:15:00;;;;;;;2.78;2.58;;;20.50;99.90;;;;;;4955309;28;20403;-79
2021/08/22 07:17:26;;;;;;;2.70;2.50;;;20.70;99.90;;;;;;4993828;28;20401;-80
2021/08/22 07:19:51;;;;;;;3.08;2.83;;;20.90;99.90;;;;;;4971914;28;20380;-80
2021/08/22 07:22:17;;;;;;;3.20;3.00;;;20.90;99.90;;;;;;4984971;28;20459;-81
2021/08/22 07:24:43;;;;;;;2.60;2.40;;;20.90;99.90;;;;;;4957120;28;20450;-80
2021/08/22 07:27:08;;;;;;;2.95;2.65;;;20.90;99.90;;;;;;4969081;28;20413;-81
2021/08/22 07:29:35;;;;;;;3.58;2.70;;;21.00;99.90;;;;;;4954660;28;20497;-81
2021/08/22 07:32:01;;;;;;;2.70;2.50;;;21.00;99.90;;;;;;4970384;28;20451;-80
2021/08/22 07:34:27;;;;;;;2.90;2.60;;;21.10;99.90;;;;;;4987287;28;20778;-80
2021/08/22 07:36:52;;;;;;;2.50;2.30;;;21.20;99.90;;;;;;4985087;28;20394;-81
2021/08/22 07:39:18;;;;;;;2.85;2.60;;;21.30;99.90;;;;;;4971914;28;20397;-80
2021/08/22 07:41:44;;;;;;;3.00;2.43;;;21.50;99.90;;;;;;4988851;28;20421;-81
2021/08/22 07:44:09;;;;;;;2.70;2.40;;;21.60;99.90;;;;;;5006667;28;20404;-81
2021/08/22 07:46:35;;;;;;;2.58;2.38;;;21.70;99.90;;;;;;5006403;28;20408;-81
2021/08/22 07:49:00;;;;;;;3.47;2.77;;;21.70;99.90;;;;;;5007435;28;20400;-81
2021/08/22 07:51:26;;;;;;;3.23;2.50;;;21.80;99.90;;;;;;5006344;28;20397;-80
2021/08/22 07:53:52;;;;;;;3.60;2.88;;;21.90;99.90;;;;;;5007027;28;20404;-80
2021/08/22 07:56:17;;;;;;;5.33;2.73;;;21.90;99.90;;;;;;5008312;28;20392;-81
2021/08/22 07:58:43;;;;;;;2.83;2.47;;;22.00;99.90;;;;;;5009322;28;20389;-80
2021/08/22 08:01:09;;;;;;;2.75;2.50;;;22.00;99.90;;;;;;4974087;28;20488;-81
2021/08/22 08:03:34;;;;;;;2.75;2.53;;;22.10;99.90;;;;;;4973593;28;20739;-80
2021/08/22 08:06:00;;;;;;;2.47;2.27;;;22.20;99.90;;;;;;4990053;28;20393;-81
2021/08/22 08:08:26;;;;;;;2.45;2.25;;;22.30;99.90;;;;;;4971846;28;20411;-81
2021/08/22 08:11:02;;;;;;;2.40;2.30;;;22.60;99.90;;;;;;4977335;28;20381;-79
2021/08/22 08:13:58;;;;;;;2.90;2.70;;;22.50;99.90;;;;;;4994993;28;20945;-81
2021/08/22 08:16:52;;;;;;;2.53;2.33;;;22.70;99.90;;;;;;4930079;28;20834;-81
2021/08/22 08:19:25;;;;;;;2.53;2.33;;;22.90;99.90;;;;;;5004492;28;20385;-82
2021/08/22 08:26:52;;;;;;;2.40;2.25;;;23.10;99.90;;;;;;5035694;28;20376;-84
2021/08/22 08:30:34;;;;;;;4.13;2.72;;;23.40;99.90;;;;;;5031608;28;20388;-82
2021/08/22 08:34:32;;;;;;;2.42;2.22;;;23.70;99.90;;;;;;5030222;28;20440;-82
2021/08/22 08:38:27;;;;;;;2.58;2.35;;;23.90;99.90;;;;;;5011350;28;20433;-83
2021/08/22 08:42:37;;;;;;;2.63;1.90;;;23.90;99.90;;;;;;4999631;28;20452;-83
2021/08/22 08:54:48;;;;;;;2.10;1.90;;;24.30;99.90;;;;;;4952322;28;20500;-83
2021/08/22 08:59:03;;;;;;;1.90;1.75;;;24.30;99.90;;;;;;4962047;28;20498;-82
2021/08/22 09:02:38;;;;;;;2.23;2.03;;;24.30;99.90;;;;;;4915173;28;20909;-82
2021/08/22 09:19:03;;;;;;;2.15;1.83;;;24.60;99.90;;;;;;4957510;28;20421;-82
2021/08/22 09:22:38;;;;;;;1.70;1.60;;;24.80;99.90;;;;;;4969594;28;20412;-82
2021/08/22 09:34:23;;;;;;;2.83;2.30;;;25.10;99.90;;;;;;5026954;28;20445;-81
2021/08/22 09:37:07;;;;;;;2.15;1.95;;;25.00;99.90;;;;;;5008917;28;20396;-81
2021/08/22 09:40:10;;;;;;;2.28;2.08;;;25.10;99.90;;;;;;4993607;28;20389;-83
2021/08/22 09:43:29;;;;;;;2.50;2.08;;;25.10;99.90;;;;;;4987464;28;20402;-84
2021/08/22 10:12:01;;;;;;;2.20;2.00;;;26.60;99.90;;;;;;4999466;23;20415;-82
2021/08/22 10:14:28;;;;;;;1.70;1.60;;;26.50;99.90;;;;;;4926560;28;20468;-81
2021/08/22 10:17:01;;;;;;;2.33;2.15;;;26.40;99.90;;;;;;4985656;28;20404;-82
2021/08/22 10:19:30;;;;;;;2.05;1.90;;;26.30;99.90;;;;;;4951951;28;20385;-83
2021/08/22 10:22:44;;;;;;;2.20;2.00;;;26.40;99.90;;;;;;4959183;28;20420;-82
2021/08/22 10:25:48;;;;;;;1.73;1.63;;;26.60;99.90;;;;;;5018483;23;20894;-72
2021/08/22 10:28:13;;;;;;;2.10;1.70;;;26.90;99.90;;;;;;4960694;28;20500;-70
2021/08/22 10:30:42;;;;;;;2.25;1.75;;;27.00;99.90;;;;;;4990606;28;20403;-71
2021/08/22 10:33:09;;;;;;;1.77;1.67;;;27.20;99.90;;;;;;4965624;28;20968;-72
2021/08/22 10:35:35;;;;;;;1.87;1.77;;;27.40;99.90;;;;;;4956423;28;20449;-72
2021/08/22 10:38:23;;;;;;;2.10;2.00;;;27.60;99.90;;;;;;4952938;28;20899;-72
2021/08/22 10:40:49;;;;;;;2.20;1.70;;;27.70;99.90;;;;;;4954887;28;20408;-72
2021/08/22 10:43:17;;;;;;;1.60;1.50;;;27.80;99.90;;;;;;4956419;28;20416;-72
2021/08/22 10:45:43;;;;;;;1.85;1.70;;;27.70;99.90;;;;;;4971939;28;20403;-74
2021/08/22 10:48:23;;;;;;;1.70;1.60;;;27.60;99.90;;;;;;4969827;28;20408;-73
2021/08/22 10:50:58;;;;;;;2.58;2.38;;;27.50;99.90;;;;;;4976209;28;20503;-73
2021/08/22 10:53:25;;;;;;;2.47;2.28;;;27.60;99.90;;;;;;4962930;28;21006;-74
2021/08/22 10:55:50;;;;;;;2.00;1.90;;;27.60;99.90;;;;;;4971731;28;20404;-73
2021/08/22 10:58:16;;;;;;;1.83;1.73;;;27.60;99.90;;;;;;4959950;28;20390;-75
2021/08/22 11:00:42;;;;;;;1.70;1.60;;;27.70;99.90;;;;;;4974123;28;20428;-72
2021/08/22 11:03:17;;;;;;;1.53;1.43;;;27.70;99.90;;;;;;4974455;28;20406;-73
2021/08/22 11:05:42;;;;;;;2.13;1.63;;;27.80;99.90;;;;;;4972371;28;20458;-72
2021/08/22 11:08:17;;;;;;;2.03;1.73;;;27.80;99.90;;;;;;4958835;28;20404;-74
2021/08/22 11:11:05;;;;;;;1.77;1.67;;;27.80;99.90;;;;;;4943189;28;20934;-73
2021/08/22 11:13:31;;;;;;;2.20;2.00;;;27.80;99.90;;;;;;4953370;28;20784;-73
2021/08/22 11:16:07;;;;;;;1.73;1.63;;;27.80;99.90;;;;;;4964737;28;20418;-72
2021/08/22 11:18:33;;;;;;;1.75;1.65;;;27.80;99.90;;;;;;4988489;28;20920;-76
2021/08/22 11:20:59;;;;;;;2.58;1.77;;;27.80;99.90;;;;;;4957510;28;20442;-73
2021/08/22 11:23:25;;;;;;;2.15;1.98;;;27.70;99.90;;;;;;4951303;28;20434;-72
2021/08/22 11:26:08;;;;;;;1.50;1.40;;;27.70;99.90;;;;;;4983382;28;20416;-73
2021/08/22 11:28:34;;;;;;;2.47;2.25;;;27.60;99.90;;;;;;4960833;28;20401;-74
2021/08/22 11:30:59;;;;;;;2.15;1.63;;;27.60;99.90;;;;;;4971313;28;20768;-74
2021/08/22 11:33:29;;;;;;;1.95;1.85;;;27.60;99.90;;;;;;4972287;28;20410;-72
2021/08/22 11:35:55;;;;;;;1.80;1.70;;;27.50;99.90;;;;;;4966902;28;20407;-72
2021/08/22 11:38:20;;;;;;;2.13;1.92;;;27.40;99.90;;;;;;4948955;28;20402;-73
2021/08/22 11:40:46;;;;;;;1.85;1.75;;;27.30;99.90;;;;;;4982014;28;20904;-72
2021/08/22 11:43:12;;;;;;;1.60;1.50;;;27.20;99.90;;;;;;4929427;28;20465;-72
2021/08/22 11:45:42;;;;;;;1.95;1.80;;;27.10;99.90;;;;;;4967497;28;20432;-72
2021/08/22 11:48:14;;;;;;;2.03;1.83;;;27.10;99.90;;;;;;4980368;28;20411;-73
2021/08/22 11:50:40;;;;;;;2.08;1.98;;;27.10;99.90;;;;;;4961672;28;20402;-73
2021/08/22 11:53:06;;;;;;;1.80;1.70;;;27.10;99.90;;;;;;4954156;28;20474;-73
2021/08/22 11:55:34;;;;;;;1.85;1.75;;;27.30;99.90;;;;;;4955756;28;20957;-73
2021/08/22 11:58:16;;;;;;;1.90;1.80;;;27.30;99.90;;;;;;4976843;28;20486;-72
2021/08/22 12:00:45;;;;;;;2.20;2.00;;;27.40;99.90;;;;;;4985440;28;20790;-72
2021/08/22 12:03:21;;;;;;;3.35;2.35;;;27.40;99.90;;;;;;4969762;28;20397;-72
2021/08/22 12:05:59;;;;;;;2.22;2.03;;;27.40;99.90;;;;;;4962776;28;20405;-75
2021/08/22 12:08:25;;;;;;;4.95;2.40;;;27.40;99.90;;;;;;4999657;28;20457;-73
2021/08/22 12:10:53;;;;;;;1.80;1.70;;;27.50;99.90;;;;;;4967071;28;20396;-74
2021/08/22 12:13:20;;;;;;;2.50;2.25;;;27.60;99.90;;;;;;4932792;28;20773;-76
2021/08/22 12:15:50;;;;;;;1.77;1.60;;;27.70;99.90;;;;;;4981322;28;20471;-72
2021/08/22 12:18:23;;;;;;;2.10;1.85;;;27.80;99.90;;;;;;4968465;28;21171;-73
2021/08/22 12:21:04;;;;;;;1.95;1.85;;;27.80;99.90;;;;;;4969302;28;20430;-72
2021/08/22 12:23:34;;;;;;;1.70;1.60;;;27.80;99.90;;;;;;4953213;28;20444;-72
2021/08/22 12:26:20;;;;;;;2.10;1.90;;;27.80;99.90;;;;;;4953486;28;20764;-75
2021/08/22 12:28:54;;;;;;;2.10;1.60;;;27.70;99.90;;;;;;3952847;28;10001672;-73
2021/08/22 12:31:33;;;;;;;1.72;1.57;;;27.70;99.90;;;;;;3919778;28;10001607;-73
2021/08/22 12:34:01;;;;;;;1.80;1.70;;;27.70;99.90;;;;;;4923874;29;20418;-72
2021/08/22 12:36:35;;;;;;;1.90;1.80;;;27.60;99.90;;;;;;4893429;29;20727;-72
2021/08/22 12:39:01;;;;;;;5.22;2.58;;;27.60;99.90;;;;;;4907602;29;20552;-71
2021/08/22 12:41:49;;;;;;;1.67;1.58;;;27.40;99.90;;;;;;4920553;29;20419;-71
2021/08/22 12:44:14;;;;;;;4.43;1.77;;;27.30;99.90;;;;;;4935150;28;20411;-71
2021/08/22 12:46:40;;;;;;;1.53;1.43;;;27.20;99.90;;;;;;4918844;29;20403;-72
2021/08/22 12:49:06;;;;;;;3.40;2.22;;;27.10;99.90;;;;;;4904938;29;20401;-72
2021/08/22 12:51:32;;;;;;;2.03;1.90;;;26.90;99.90;;;;;;4899305;29;20414;-71
2021/08/22 12:53:58;;;;;;;1.60;1.50;;;26.80;99.90;;;;;;4904368;29;20601;-72
2021/08/22 12:56:23;;;;;;;1.95;1.70;;;26.60;99.90;;;;;;4901065;29;20412;-71
2021/08/22 12:58:51;;;;;;;2.83;1.60;;;26.40;99.90;;;;;;4922341;29;20425;-71
2021/08/22 13:01:17;;;;;;;1.70;1.35;;;26.40;99.90;;;;;;4913426;29;20409;-72
2021/08/22 13:03:42;;;;;;;1.50;1.40;;;26.40;99.90;;;;;;4901516;29;20779;-70
2021/08/22 13:06:08;;;;;;;1.57;1.47;;;26.40;99.90;;;;;;4900315;29;20415;-72
2021/08/22 13:08:34;;;;;;;1.58;1.48;;;26.40;99.90;;;;;;4906594;29;20409;-71
2021/08/22 13:10:59;;;;;;;1.70;1.60;;;26.30;99.90;;;;;;4904845;29;20426;-71
2021/08/22 13:13:25;;;;;;;1.20;1.20;;;26.30;99.90;;;;;;4888439;29;20421;-71
2021/08/22 13:15:51;;;;;;;1.50;1.40;;;26.20;99.90;;;;;;4901723;29;20409;-73
2021/08/22 13:18:16;;;;;;;1.50;1.40;;;26.20;99.90;;;;;;4885837;29;20455;-72
2021/08/22 13:20:42;;;;;;;1.90;1.80;;;26.10;99.90;;;;;;4917600;29;20412;-72
2021/08/22 13:23:08;;;;;;;1.50;1.40;;;26.10;99.90;;;;;;4903533;29;20417;-72
2021/08/22 13:25:34;;;;;;;1.20;1.20;;;26.00;99.90;;;;;;4889552;29;20402;-71
2021/08/22 13:28:00;;;;;;;1.60;1.50;;;25.90;99.90;;;;;;4887126;29;20870;-72
2021/08/22 13:30:25;;;;;;;2.53;2.33;;;25.90;99.90;;;;;;4915617;29;20425;-72
2021/08/22 13:32:54;;;;;;;1.30;1.30;;;25.90;99.90;;;;;;4888947;29;20779;-72
2021/08/22 13:35:19;;;;;;;1.77;1.67;;;25.90;99.90;;;;;;4916467;29;20413;-71
2021/08/22 13:37:45;;;;;;;1.55;1.45;;;25.80;99.90;;;;;;4902224;29;20420;-71
2021/08/22 13:40:11;;;;;;;2.00;1.90;;;25.70;99.90;;;;;;4924071;29;20395;-72
2021/08/22 13:42:37;;;;;;;2.00;1.80;;;25.60;99.90;;;;;;4918056;29;20463;-71
2021/08/22 13:45:03;;;;;;;1.83;1.73;;;25.50;99.90;;;;;;4919612;29;20958;-71
2021/08/22 13:47:29;;;;;;;1.58;1.48;;;25.50;99.90;;;;;;4920971;29;20698;-71
2021/08/22 13:49:55;;;;;;;4.67;2.50;;;25.50;99.90;;;;;;4922615;29;20495;-72
2021/08/22 13:52:20;;;;;;;2.38;1.40;;;25.50;99.90;;;;;;4902510;29;20456;-72
2021/08/22 13:54:46;;;;;;;1.48;1.38;;;25.50;99.90;;;;;;4923070;29;20436;-71
2021/08/22 13:57:11;;;;;;;1.50;1.40;;;25.40;99.90;;;;;;4909576;29;20494;-71
2021/08/22 13:59:37;;;;;;;1.67;1.58;;;25.40;99.90;;;;;;4920217;29;20932;-71
2021/08/22 14:02:04;;;;;;;1.92;1.67;;;25.60;99.90;;;;;;4920934;29;20447;-71